createdAt,value
2019-05-25T00:01:17.670Z,2.95
2019-05-25T00:04:10.476Z,3.87
2019-05-25T00:07:03.526Z,2.30
2019-05-25T00:09:56.591Z,3.47
2019-05-25T00:12:45.549Z,3.12
2019-05-25T00:15:38.598Z,3.80
2019-05-25T00:18:31.654Z,3.00
2019-05-25T00:21:24.458Z,2.70
2019-05-25T00:24:17.259Z,2.70
2019-05-25T00:27:10.312Z,3.30
2019-05-25T00:30:03.117Z,3.83
2019-05-25T00:32:56.168Z,3.27
2019-05-25T00:35:48.985Z,3.35
2019-05-25T00:38:42.040Z,4.45
2019-05-25T00:41:36.105Z,2.40
2019-05-25T00:44:30.182Z,2.95
2019-05-25T00:47:19.364Z,2.40
2019-05-25T00:50:12.457Z,2.27
2019-05-25T00:53:05.264Z,4.15
2019-05-25T00:55:58.055Z,2.67
2019-05-25T00:58:51.112Z,2.75
2019-05-25T01:01:44.166Z,2.90
2019-05-25T01:04:37.478Z,3.62
2019-05-25T01:07:30.534Z,1.90
2019-05-25T01:10:24.870Z,2.27
2019-05-25T01:13:17.671Z,4.67
2019-05-25T01:16:10.727Z,3.25
2019-05-25T01:19:03.785Z,3.87
2019-05-25T01:21:56.581Z,2.10
2019-05-25T01:24:49.639Z,5.25
2019-05-25T01:27:42.439Z,2.60
2019-05-25T01:30:35.247Z,5.35
2019-05-25T01:33:24.355Z,2.37
2019-05-25T01:36:17.512Z,4.08
2019-05-25T01:39:10.566Z,4.25
2019-05-25T01:42:03.368Z,3.98
2019-05-25T01:44:56.681Z,2.95
2019-05-25T01:47:49.735Z,3.12
2019-05-25T01:50:42.795Z,5.40
2019-05-25T01:53:36.616Z,4.85
2019-05-25T01:56:30.182Z,3.90
2019-05-25T01:59:23.237Z,3.00
2019-05-25T02:02:16.296Z,3.20
2019-05-25T02:05:10.385Z,6.53
2019-05-25T02:08:04.202Z,6.92
2019-05-25T02:10:56.999Z,5.67
2019-05-25T02:13:50.858Z,3.25
2019-05-25T02:16:43.937Z,2.95
2019-05-25T02:19:37.194Z,5.72
2019-05-25T02:22:30.249Z,3.60
2019-05-25T02:25:24.072Z,3.65
2019-05-25T02:28:17.127Z,3.90
2019-05-25T02:31:10.183Z,3.37
2019-05-25T02:34:02.987Z,3.90
2019-05-25T02:36:51.944Z,4.83
2019-05-25T02:39:44.748Z,3.37
2019-05-25T02:42:37.543Z,6.70
2019-05-25T02:45:30.603Z,6.58
2019-05-25T02:48:24.679Z,5.97
2019-05-25T02:51:17.995Z,7.83
2019-05-25T02:54:10.797Z,7.42
2019-05-25T02:57:03.596Z,6.87
2019-05-25T02:59:56.392Z,7.72
2019-05-25T03:02:49.454Z,3.72
2019-05-25T03:05:42.308Z,3.00
2019-05-25T03:08:35.048Z,7.53
2019-05-25T03:11:28.104Z,8.35
2019-05-25T03:14:21.160Z,3.85
2019-05-25T03:17:14.982Z,2.92
2019-05-25T03:20:08.038Z,2.98
2019-05-25T03:23:00.845Z,2.87
2019-05-25T03:25:50.448Z,3.92
2019-05-25T03:28:43.368Z,4.90
2019-05-25T03:31:36.168Z,7.75
2019-05-25T03:34:29.229Z,4.17
2019-05-25T03:37:22.285Z,8.60
2019-05-25T03:40:15.082Z,9.58
2019-05-25T03:43:07.879Z,10.32
2019-05-25T03:46:00.936Z,9.18
2019-05-25T03:48:51.126Z,10.60
2019-05-25T03:51:43.973Z,4.10
2019-05-25T03:54:36.775Z,10.50
2019-05-25T03:57:27.017Z,11.22
2019-05-25T04:00:20.077Z,11.33
2019-05-25T04:03:13.128Z,5.70
2019-05-25T04:06:06.951Z,9.20
2019-05-25T04:08:59.751Z,11.08
2019-05-25T04:11:52.551Z,7.25
2019-05-25T04:14:45.610Z,7.50
2019-05-25T04:17:38.454Z,11.00
2019-05-25T04:20:27.622Z,6.67
2019-05-25T04:23:20.425Z,11.50
2019-05-25T04:26:22.195Z,7.00
2019-05-25T04:29:06.536Z,7.47
2019-05-25T04:32:00.616Z,3.62
2019-05-25T04:34:53.670Z,3.58
2019-05-25T04:37:46.471Z,7.17
2019-05-25T04:40:46.949Z,3.45
2019-05-25T04:43:39.750Z,3.30
2019-05-25T04:46:32.807Z,3.80
2019-05-25T04:49:25.617Z,8.33
2019-05-25T04:52:18.679Z,5.58
2019-05-25T04:55:11.472Z,11.10
2019-05-25T04:58:04.782Z,5.30
2019-05-25T05:00:58.091Z,7.83
2019-05-25T05:03:51.402Z,12.70
2019-05-25T05:06:44.756Z,5.70
2019-05-25T05:09:38.025Z,5.00
2019-05-25T05:12:31.339Z,4.50
2019-05-25T05:15:24.147Z,10.38
2019-05-25T05:18:16.938Z,8.55
2019-05-25T05:21:09.996Z,13.03
2019-05-25T05:24:03.303Z,6.12
2019-05-25T05:26:56.663Z,5.90
2019-05-25T05:29:49.675Z,7.92
2019-05-25T05:32:39.089Z,6.60
2019-05-25T05:35:31.963Z,7.47
2019-05-25T05:38:26.548Z,6.50
2019-05-25T05:41:16.018Z,9.55
2019-05-25T05:44:09.065Z,6.30
2019-05-25T05:47:02.391Z,6.25
2019-05-25T05:49:55.440Z,9.43
2019-05-25T05:52:49.517Z,8.83
2019-05-25T05:55:43.591Z,11.20
2019-05-25T05:58:36.391Z,12.68
2019-05-25T06:01:29.446Z,5.15
2019-05-25T06:04:22.248Z,10.00
2019-05-25T06:07:11.206Z,4.20
2019-05-25T06:10:04.022Z,4.55
2019-05-25T06:12:57.072Z,10.15
2019-05-25T06:15:49.864Z,7.25
2019-05-25T06:18:42.920Z,11.80
2019-05-25T06:21:35.727Z,6.10
2019-05-25T06:24:28.782Z,4.40
2019-05-25T06:27:27.326Z,11.80
2019-05-25T06:30:14.635Z,10.53
2019-05-25T06:33:07.434Z,9.88
2019-05-25T06:36:01.256Z,5.78
2019-05-25T06:38:54.568Z,8.00
2019-05-25T06:41:47.880Z,5.90
2019-05-25T06:44:40.957Z,10.13
2019-05-25T06:47:34.253Z,9.33
2019-05-25T06:50:27.816Z,12.70
2019-05-25T06:53:20.872Z,11.60
2019-05-25T06:56:15.210Z,9.10
2019-05-25T06:59:08.009Z,5.67
2019-05-25T07:02:01.062Z,5.42
2019-05-25T07:04:54.119Z,6.65
2019-05-25T07:07:46.920Z,6.15
2019-05-25T07:10:36.334Z,7.37
2019-05-25T07:13:29.450Z,5.87
2019-05-25T07:16:22.504Z,5.72
2019-05-25T07:19:15.560Z,5.42
2019-05-25T07:22:08.364Z,7.75
2019-05-25T07:25:01.695Z,5.53
2019-05-25T07:27:59.593Z,5.67
2019-05-25T07:30:48.038Z,5.97
2019-05-25T07:33:37.256Z,6.35
2019-05-25T07:36:30.570Z,7.10
2019-05-25T07:39:20.042Z,6.15
2019-05-25T07:42:12.843Z,5.92
2019-05-25T07:45:06.664Z,9.68
2019-05-25T07:47:59.985Z,9.80
2019-05-25T07:51:06.856Z,9.48
2019-05-25T07:54:08.616Z,8.13
2019-05-25T07:57:14.726Z,4.92
2019-05-25T08:00:07.786Z,5.75
2019-05-25T08:03:02.634Z,7.28
2019-05-25T08:06:02.924Z,6.90
2019-05-25T08:08:56.422Z,8.95
2019-05-25T08:11:49.495Z,4.70
2019-05-25T08:14:45.038Z,7.08
2019-05-25T08:17:37.136Z,4.87
2019-05-25T08:20:30.462Z,5.35
2019-05-25T08:23:18.634Z,8.38
2019-05-25T08:26:12.199Z,3.77
2019-05-25T08:29:03.247Z,8.00
2019-05-25T08:31:57.036Z,3.62
2019-05-25T08:34:50.139Z,6.83
2019-05-25T08:37:46.008Z,4.25
2019-05-25T08:40:39.802Z,4.30
2019-05-25T08:43:33.607Z,3.40
2019-05-25T08:46:26.663Z,7.55
2019-05-25T08:49:19.978Z,6.53
2019-05-25T08:52:13.287Z,4.30
2019-05-25T08:55:01.793Z,5.22
2019-05-25T08:57:55.307Z,6.22
2019-05-25T09:00:49.139Z,4.33
2019-05-25T09:03:45.261Z,4.87
2019-05-25T09:06:39.869Z,6.05
2019-05-25T09:09:33.946Z,4.75
2019-05-25T09:12:28.263Z,4.80
2019-05-25T09:15:18.156Z,4.78
2019-05-25T09:18:12.071Z,3.70
2019-05-25T09:21:05.143Z,3.83
2019-05-25T09:23:58.184Z,5.53
2019-05-25T09:26:53.035Z,8.30
2019-05-25T09:29:46.901Z,3.70
2019-05-25T09:32:41.707Z,3.25
2019-05-25T09:35:36.056Z,8.55
2019-05-25T09:38:30.136Z,3.60
2019-05-25T09:41:25.053Z,6.20
2019-05-25T09:44:18.301Z,3.95
2019-05-25T09:47:12.616Z,3.95
2019-05-25T09:50:02.142Z,2.67
2019-05-25T09:52:55.415Z,3.02
2019-05-25T09:55:49.233Z,3.00
2019-05-25T09:58:45.376Z,3.75
2019-05-25T10:01:38.732Z,5.10
2019-05-25T10:04:33.535Z,2.92
2019-05-25T10:07:37.074Z,2.17
2019-05-25T10:10:30.907Z,3.25
2019-05-25T10:13:21.898Z,2.20
2019-05-25T10:16:15.479Z,2.08
2019-05-25T10:19:09.549Z,4.25
2019-05-25T10:22:03.379Z,3.05
2019-05-25T10:24:57.452Z,1.90
2019-05-25T10:27:47.022Z,2.00
2019-05-25T10:30:40.242Z,1.92
2019-05-25T10:33:34.311Z,2.05
2019-05-25T10:36:28.393Z,1.90
2019-05-25T10:39:21.962Z,1.70
2019-05-25T10:42:17.068Z,2.37
2019-05-25T10:45:10.918Z,2.52
2019-05-25T10:48:05.505Z,1.75
2019-05-25T10:50:59.556Z,2.47
2019-05-25T10:53:47.432Z,2.47
2019-05-25T10:56:42.111Z,1.72
2019-05-25T10:59:33.684Z,2.00
2019-05-25T11:02:27.688Z,2.02
2019-05-25T11:05:20.487Z,4.55
2019-05-25T11:08:13.296Z,1.70
2019-05-25T11:11:06.347Z,1.50
2019-05-25T11:13:56.334Z,3.10
2019-05-25T11:16:49.126Z,1.47
2019-05-25T11:19:41.937Z,1.55
2019-05-25T11:22:35.000Z,3.75
2019-05-25T11:25:28.807Z,1.60
2019-05-25T11:28:22.119Z,1.72
2019-05-25T11:31:14.918Z,2.62
2019-05-25T11:34:08.234Z,2.77
2019-05-25T11:37:01.031Z,2.60
2019-05-25T11:39:54.088Z,2.65
2019-05-25T11:42:47.142Z,2.37
2019-05-25T11:45:40.200Z,2.45
2019-05-25T11:48:33.264Z,1.70
2019-05-25T11:51:26.310Z,2.90
2019-05-25T11:54:19.627Z,2.47
2019-05-25T11:57:12.937Z,1.60
2019-05-25T12:00:06.504Z,1.80
2019-05-25T12:02:59.559Z,2.33
2019-05-25T12:05:52.620Z,1.77
2019-05-25T12:08:41.738Z,1.60
2019-05-25T12:11:34.636Z,1.72
2019-05-25T12:14:27.687Z,2.75
2019-05-25T12:17:20.487Z,2.33
2019-05-25T12:20:08.105Z,3.10
2019-05-25T12:23:01.149Z,2.50
2019-05-25T12:25:46.568Z,2.90
2019-05-25T12:28:39.407Z,2.12
2019-05-25T12:31:32.200Z,2.30
2019-05-25T12:34:25.001Z,2.65
2019-05-25T12:37:18.313Z,2.20
2019-05-25T12:40:08.810Z,3.50
2019-05-25T12:42:57.768Z,3.02
2019-05-25T12:45:50.568Z,2.75
2019-05-25T12:48:43.624Z,2.80
2019-05-25T12:51:36.688Z,3.15
2019-05-25T12:54:29.746Z,3.02
2019-05-25T12:57:24.240Z,4.03
2019-05-25T13:00:16.884Z,3.02
2019-05-25T13:03:05.486Z,3.15
2019-05-25T13:05:58.376Z,2.17
2019-05-25T13:08:51.690Z,2.60
2019-05-25T13:11:44.751Z,2.70
2019-05-25T13:14:38.317Z,3.62
2019-05-25T13:17:27.910Z,2.75
2019-05-25T13:20:21.358Z,3.37
2019-05-25T13:23:14.408Z,3.02
2019-05-25T13:26:08.486Z,3.77
2019-05-25T13:29:01.548Z,3.00
2019-05-25T13:31:50.960Z,3.33
2019-05-25T13:34:44.072Z,4.08
2019-05-25T13:37:37.644Z,3.45
2019-05-25T13:40:30.444Z,3.20
2019-05-25T13:43:19.915Z,3.00
2019-05-25T13:46:13.229Z,3.65
2019-05-25T13:49:06.279Z,3.67
2019-05-25T13:51:59.081Z,4.37
2019-05-25T13:54:51.880Z,4.12
2019-05-25T13:57:45.708Z,3.65
2019-05-25T14:00:38.769Z,4.00
2019-05-25T14:03:31.559Z,3.42
2019-05-25T14:06:24.371Z,4.15
2019-05-25T14:09:18.437Z,3.17
2019-05-25T14:12:11.494Z,2.45
2019-05-25T14:15:04.586Z,2.42
2019-05-25T14:17:58.637Z,2.10
2019-05-25T14:20:51.687Z,2.15
2019-05-25T14:23:44.489Z,2.40
2019-05-25T14:26:37.287Z,2.20
2019-05-25T14:29:30.348Z,2.25
2019-05-25T14:32:23.143Z,2.10
2019-05-25T14:35:15.946Z,2.20
2019-05-25T14:38:08.489Z,2.33
2019-05-25T14:41:01.291Z,2.40
2019-05-25T14:43:54.349Z,2.27
2019-05-25T14:46:48.430Z,2.22
2019-05-25T14:49:41.222Z,2.72
2019-05-25T14:52:34.279Z,2.05
2019-05-25T14:55:27.336Z,2.00
2019-05-25T14:58:20.137Z,2.10
2019-05-25T15:01:13.190Z,1.90
2019-05-25T15:04:06.246Z,1.98
2019-05-25T15:06:59.050Z,1.82
2019-05-25T15:10:47.144Z,1.55
2019-05-25T15:13:39.952Z,1.65
2019-05-25T15:16:34.029Z,1.62
2019-05-25T15:19:27.078Z,1.80
2019-05-25T15:22:20.400Z,1.70
2019-05-25T15:25:13.704Z,1.47
2019-05-25T15:28:06.505Z,1.70
2019-05-25T15:30:59.563Z,1.60
2019-05-25T15:33:52.358Z,1.70
2019-05-25T15:36:45.414Z,1.92
2019-05-25T15:39:38.217Z,1.75
2019-05-25T15:42:31.014Z,1.90
2019-05-25T15:45:24.074Z,1.82
2019-05-25T15:48:16.872Z,1.90
2019-05-25T15:51:09.671Z,1.80
2019-05-25T15:54:02.743Z,2.02
2019-05-25T15:56:55.531Z,1.55
2019-05-25T15:59:48.586Z,1.37
2019-05-25T16:02:42.154Z,1.40
2019-05-25T16:05:34.951Z,1.75
2019-05-25T16:08:27.751Z,1.62
2019-05-25T16:11:20.809Z,1.52
2019-05-25T16:14:13.615Z,1.60
2019-05-25T16:17:06.407Z,1.90
2019-05-25T16:19:59.720Z,1.62
2019-05-25T16:22:52.519Z,1.92
2019-05-25T16:25:45.830Z,2.08
2019-05-25T16:28:38.631Z,1.80
2019-05-25T16:31:27.589Z,1.67
2019-05-25T16:34:20.651Z,1.55
2019-05-25T16:37:13.538Z,1.98
2019-05-25T16:40:06.249Z,1.55
2019-05-25T16:43:00.326Z,1.42
2019-05-25T16:45:53.383Z,1.60
2019-05-25T16:48:46.441Z,2.30
2019-05-25T16:51:39.495Z,1.90
2019-05-25T16:54:32.553Z,1.72
2019-05-25T16:57:28.423Z,1.37
2019-05-25T17:00:21.481Z,1.32
2019-05-25T17:03:27.381Z,1.70
2019-05-25T17:06:07.337Z,1.55
2019-05-25T17:09:01.159Z,1.75
2019-05-25T17:11:53.959Z,1.32
2019-05-25T17:14:47.020Z,1.60
2019-05-25T17:17:40.078Z,1.65
2019-05-25T17:20:30.397Z,1.70
2019-05-25T17:23:23.368Z,1.50
2019-05-25T17:26:16.425Z,1.60
2019-05-25T17:29:09.224Z,1.50
2019-05-25T17:32:02.023Z,1.35
2019-05-25T17:34:55.078Z,1.35
2019-05-25T17:37:49.162Z,1.30
2019-05-25T17:40:41.958Z,1.37
2019-05-25T17:43:36.039Z,1.70
2019-05-25T17:46:25.252Z,1.50
2019-05-25T17:49:18.310Z,1.50
2019-05-25T17:52:11.119Z,1.57
2019-05-25T17:55:04.189Z,1.50
2019-05-25T17:57:56.967Z,1.40
2019-05-25T18:00:58.985Z,1.50
2019-05-25T18:04:04.958Z,1.92
2019-05-25T18:06:40.997Z,1.82
2019-05-25T18:09:33.803Z,1.90
2019-05-25T18:12:26.866Z,1.95
2019-05-25T18:15:20.691Z,1.82
2019-05-25T18:18:13.735Z,1.98
2019-05-25T18:21:07.047Z,1.85
2019-05-25T18:23:59.894Z,1.85
2019-05-25T18:26:52.901Z,2.00
2019-05-25T18:29:42.118Z,2.02
2019-05-25T18:32:35.215Z,2.17
2019-05-25T18:35:28.492Z,1.85
2019-05-25T18:38:21.288Z,2.17
2019-05-25T18:41:14.348Z,2.30
2019-05-25T18:44:07.656Z,2.30
2019-05-25T18:47:00.713Z,2.20
2019-05-25T18:49:53.775Z,2.15
2019-05-25T18:52:47.087Z,2.22
2019-05-25T18:55:36.561Z,1.90
2019-05-25T18:58:30.634Z,2.22
2019-05-25T19:01:24.716Z,2.65
2019-05-25T19:04:17.780Z,2.37
2019-05-25T19:07:10.833Z,3.00
2019-05-25T19:10:04.444Z,2.85
2019-05-25T19:12:58.986Z,2.37
2019-05-25T19:15:52.044Z,2.45
2019-05-25T19:18:41.621Z,2.70
2019-05-25T19:21:34.568Z,2.37
2019-05-25T19:24:28.904Z,3.00
2019-05-25T19:27:21.962Z,2.65
2019-05-25T19:30:15.784Z,2.77
2019-05-25T19:33:09.097Z,2.50
2019-05-25T19:36:02.408Z,3.83
2019-05-25T19:38:55.209Z,3.70
2019-05-25T19:41:48.262Z,3.20
2019-05-25T19:44:41.319Z,2.62
2019-05-25T19:47:34.636Z,3.08
2019-05-25T19:50:24.108Z,2.87
2019-05-25T19:53:17.416Z,3.12
2019-05-25T19:56:05.159Z,3.02
2019-05-25T19:58:54.589Z,2.98
2019-05-25T20:01:48.648Z,3.25
2019-05-25T20:04:42.731Z,3.30
2019-05-25T20:07:37.070Z,2.60
2019-05-25T20:10:30.634Z,2.75
2019-05-25T20:13:23.432Z,3.10
2019-05-25T20:16:16.487Z,2.95
2019-05-25T20:19:10.568Z,3.45
2019-05-25T20:22:10.796Z,3.37
2019-05-25T20:25:04.112Z,2.50
2019-05-25T20:27:58.186Z,2.87
2019-05-25T20:30:51.240Z,2.83
2019-05-25T20:33:44.296Z,2.60
2019-05-25T20:36:37.351Z,2.75
2019-05-25T20:39:30.408Z,2.83
2019-05-25T20:42:23.975Z,2.55
2019-05-25T20:45:17.030Z,2.30
2019-05-25T20:48:11.115Z,2.42
2019-05-25T20:51:04.688Z,2.70
2019-05-25T20:53:57.999Z,3.35
2019-05-25T20:56:51.056Z,2.50
2019-05-25T20:59:44.616Z,2.90
2019-05-25T21:02:37.941Z,3.42
2019-05-25T21:05:30.992Z,2.70
2019-05-25T21:08:24.554Z,3.70
2019-05-25T21:11:17.614Z,2.98
2019-05-25T21:14:11.690Z,2.85
2019-05-25T21:17:04.999Z,2.42
2019-05-25T21:19:58.824Z,2.70
2019-05-25T21:23:00.590Z,2.65
2019-05-25T21:25:53.387Z,3.02
2019-05-25T21:28:47.467Z,2.90
2019-05-25T21:31:41.292Z,3.12
2019-05-25T21:34:34.342Z,2.30
2019-05-25T21:37:27.660Z,2.37
2019-05-25T21:40:20.714Z,2.77
2019-05-25T21:43:13.773Z,2.90
2019-05-25T21:46:07.080Z,3.05
2019-05-25T21:49:01.939Z,2.95
2019-05-25T21:51:56.264Z,3.10
2019-05-25T21:54:49.082Z,2.67
2019-05-25T21:57:42.124Z,2.62
2019-05-25T22:00:36.971Z,2.55
2019-05-25T22:03:30.026Z,2.30
2019-05-25T22:06:25.126Z,2.52
2019-05-25T22:09:18.182Z,2.50
2019-05-25T22:12:11.522Z,2.77
2019-05-25T22:15:05.576Z,2.45
2019-05-25T22:17:58.630Z,2.30
2019-05-25T22:20:52.455Z,2.47
2019-05-25T22:23:45.768Z,3.25
2019-05-25T22:26:38.570Z,2.75
2019-05-25T22:29:31.626Z,2.52
2019-05-25T22:35:31.306Z,2.70
2019-05-25T22:38:24.358Z,2.62
2019-05-25T22:41:19.850Z,2.12
2019-05-25T22:44:10.478Z,2.85
2019-05-25T22:47:03.526Z,3.15
2019-05-25T22:49:57.615Z,3.17
2019-05-25T22:52:50.663Z,2.80
2019-05-25T22:55:44.232Z,2.20
2019-05-25T22:58:37.032Z,2.33
2019-05-25T23:01:30.089Z,2.60
2019-05-25T23:04:24.427Z,3.02
2019-05-25T23:07:17.226Z,2.90
2019-05-25T23:10:10.280Z,2.47
2019-05-25T23:13:03.138Z,2.92
2019-05-25T23:15:55.888Z,1.90
2019-05-25T23:18:49.195Z,2.27
2019-05-25T23:21:42.246Z,2.22
2019-05-25T23:24:35.307Z,2.35
2019-05-25T23:27:28.366Z,1.90
2019-05-25T23:30:21.414Z,2.05
2019-05-25T23:33:10.637Z,1.85
2019-05-25T23:36:03.708Z,2.00
2019-05-25T23:38:56.486Z,2.15
2019-05-25T23:41:49.286Z,2.72
2019-05-25T23:44:42.089Z,2.05
2019-05-25T23:47:34.889Z,3.33
2019-05-25T23:50:27.686Z,2.40
2019-05-25T23:53:21.771Z,1.98
2019-05-25T23:56:10.956Z,2.20
2019-05-25T23:59:04.044Z,2.30
